OAS8404 SKPE-SKRG
Flight info
| Callsign | OAS8404 |
|---|---|
| Flight time | 0h 22m |
| Altitude | 21000 |
| Route | NEBOV1A MATRO W3 ISVON ISVON4A |
| Aircraft | B738/M-SDE2E3FGHIRWXY/LB1 |
Departure
| Time | 2026-04-22 01:00 |
|---|---|
| Airport | Matecaña International Airport (SKPE) |
Arrival
| Time | 2026-04-22 01:23 |
|---|---|
| Airport | Jose Maria Córdova International Airport (SKRG) |
| Time | Latitude | Longitude | Altitude | Speed | Heading |
|---|---|---|---|---|---|
| 2026-04-22 00:50 | 4.81534 | -75.73574 | 4427 ft | 0 kts | 342° |
| 2026-04-22 00:51 | 4.81520 | -75.73569 | 4427 ft | 4 kts | 326° |
| 2026-04-22 00:52 | 4.81505 | -75.73551 | 4429 ft | 4 kts | 271° |
| 2026-04-22 00:52 | 4.81506 | -75.73540 | 4431 ft | 0 kts | 252° |
| 2026-04-22 00:55 | 4.81501 | -75.73555 | 4429 ft | 7 kts | 252° |
| 2026-04-22 00:55 | 4.81477 | -75.73627 | 4426 ft | 14 kts | 252° |
| 2026-04-22 00:55 | 4.81394 | -75.73841 | 4424 ft | 19 kts | 223° |
| 2026-04-22 00:56 | 4.81293 | -75.73934 | 4422 ft | 21 kts | 223° |
| 2026-04-22 00:56 | 4.81229 | -75.74078 | 4416 ft | 25 kts | 252° |
| 2026-04-22 00:56 | 4.81170 | -75.74260 | 4405 ft | 30 kts | 251° |
| 2026-04-22 00:56 | 4.81105 | -75.74465 | 4388 ft | 31 kts | 253° |
| 2026-04-22 00:57 | 4.81036 | -75.74678 | 4363 ft | 28 kts | 252° |
| 2026-04-22 00:57 | 4.80993 | -75.74807 | 4352 ft | 20 kts | 252° |
| 2026-04-22 00:57 | 4.80964 | -75.74897 | 4347 ft | 7 kts | 8° |
| 2026-04-22 00:57 | 4.80969 | -75.74886 | 4343 ft | 0 kts | 78° |
| 2026-04-22 01:00 | 4.81031 | -75.74688 | 4359 ft | 65 kts | 72° |
| 2026-04-22 01:00 | 4.81239 | -75.74046 | 4417 ft | 127 kts | 72° |
| 2026-04-22 01:00 | 4.81559 | -75.73010 | 4502 ft | 178 kts | 76° |
| 2026-04-22 01:00 | 4.81911 | -75.71815 | 5240 ft | 182 kts | 73° |
| 2026-04-22 01:01 | 4.82579 | -75.70677 | 5885 ft | 194 kts | 50° |
| 2026-04-22 01:01 | 4.83127 | -75.69463 | 6671 ft | 196 kts | 92° |
| 2026-04-22 01:01 | 4.82626 | -75.68257 | 7364 ft | 194 kts | 141° |
| 2026-04-22 01:01 | 4.81396 | -75.67828 | 8062 ft | 192 kts | 187° |
| 2026-04-22 01:02 | 4.80221 | -75.68443 | 8516 ft | 198 kts | 229° |
| 2026-04-22 01:02 | 4.79186 | -75.69348 | 9018 ft | 204 kts | 197° |
| 2026-04-22 01:02 | 4.77788 | -75.69564 | 9597 ft | 205 kts | 196° |
| 2026-04-22 01:02 | 4.76631 | -75.70339 | 10002 ft | 204 kts | 234° |
| 2026-04-22 01:03 | 4.75722 | -75.71464 | 9987 ft | 208 kts | 229° |
| 2026-04-22 01:03 | 4.74684 | -75.72502 | 10004 ft | 219 kts | 224° |
| 2026-04-22 01:03 | 4.73510 | -75.73560 | 10018 ft | 237 kts | 222° |
| 2026-04-22 01:03 | 4.72206 | -75.74680 | 10002 ft | 253 kts | 224° |
| 2026-04-22 01:04 | 4.71252 | -75.76137 | 10017 ft | 256 kts | 252° |
| 2026-04-22 01:04 | 4.70892 | -75.77978 | 10009 ft | 285 kts | 274° |
| 2026-04-22 01:04 | 4.71184 | -75.79275 | 10005 ft | 292 kts | 294° |
| 2026-04-22 01:04 | 4.72450 | -75.80868 | 10000 ft | 298 kts | 326° |
| 2026-04-22 01:05 | 4.74346 | -75.81677 | 10017 ft | 297 kts | 343° |
| 2026-04-22 01:05 | 4.76335 | -75.82265 | 10009 ft | 298 kts | 343° |
| 2026-04-22 01:05 | 4.78325 | -75.82863 | 9998 ft | 299 kts | 343° |
| 2026-04-22 01:05 | 4.80330 | -75.83478 | 10085 ft | 307 kts | 342° |
| 2026-04-22 01:06 | 4.82452 | -75.84150 | 10250 ft | 331 kts | 342° |
| 2026-04-22 01:06 | 4.84691 | -75.84866 | 10659 ft | 343 kts | 342° |
| 2026-04-22 01:06 | 4.86988 | -75.85577 | 11298 ft | 347 kts | 346° |
| 2026-04-22 01:06 | 4.89374 | -75.86022 | 12001 ft | 350 kts | 351° |
| 2026-04-22 01:07 | 4.91791 | -75.86365 | 12676 ft | 353 kts | 351° |
| 2026-04-22 01:07 | 4.94233 | -75.86726 | 13323 ft | 357 kts | 351° |
| 2026-04-22 01:07 | 4.96714 | -75.86951 | 13950 ft | 362 kts | 4° |
| 2026-04-22 01:07 | 4.99139 | -75.86283 | 14516 ft | 366 kts | 27° |
| 2026-04-22 01:08 | 5.01195 | -75.84786 | 15108 ft | 368 kts | 45° |
| 2026-04-22 01:08 | 5.02973 | -75.82922 | 15702 ft | 372 kts | 47° |
| 2026-04-22 01:08 | 5.04736 | -75.81006 | 16266 ft | 376 kts | 47° |
| 2026-04-22 01:08 | 5.06521 | -75.79072 | 16842 ft | 379 kts | 47° |
| 2026-04-22 01:09 | 5.08333 | -75.77135 | 17437 ft | 383 kts | 47° |
| 2026-04-22 01:09 | 5.10172 | -75.75192 | 18041 ft | 385 kts | 47° |
| 2026-04-22 01:09 | 5.12023 | -75.73244 | 18592 ft | 387 kts | 47° |
| 2026-04-22 01:09 | 5.13968 | -75.71363 | 19050 ft | 391 kts | 36° |
| 2026-04-22 01:10 | 5.16404 | -75.70140 | 19483 ft | 393 kts | 20° |
| 2026-04-22 01:10 | 5.18995 | -75.69246 | 19975 ft | 396 kts | 19° |
| 2026-04-22 01:10 | 5.21623 | -75.68367 | 20400 ft | 399 kts | 18° |
| 2026-04-22 01:10 | 5.24264 | -75.67480 | 20632 ft | 401 kts | 19° |
| 2026-04-22 01:11 | 5.26868 | -75.66594 | 20521 ft | 389 kts | 19° |
| 2026-04-22 01:11 | 5.29393 | -75.65723 | 20490 ft | 378 kts | 19° |
| 2026-04-22 01:11 | 5.31839 | -75.64875 | 20474 ft | 367 kts | 19° |
| 2026-04-22 01:11 | 5.34253 | -75.64034 | 20494 ft | 368 kts | 19° |
| 2026-04-22 01:12 | 5.36673 | -75.63191 | 20494 ft | 367 kts | 19° |
| 2026-04-22 01:12 | 5.39076 | -75.62354 | 20489 ft | 365 kts | 19° |
| 2026-04-22 01:12 | 5.41411 | -75.61484 | 20440 ft | 361 kts | 24° |
| 2026-04-22 01:12 | 5.43660 | -75.60388 | 20179 ft | 359 kts | 28° |
| 2026-04-22 01:13 | 5.45830 | -75.59202 | 20093 ft | 349 kts | 29° |
| 2026-04-22 01:13 | 5.47920 | -75.58031 | 20007 ft | 340 kts | 29° |
| 2026-04-22 01:13 | 5.50012 | -75.56871 | 19411 ft | 349 kts | 29° |
| 2026-04-22 01:13 | 5.52167 | -75.55697 | 18874 ft | 355 kts | 28° |
| 2026-04-22 01:14 | 5.54344 | -75.54523 | 18492 ft | 355 kts | 28° |
| 2026-04-22 01:14 | 5.56510 | -75.53365 | 18193 ft | 350 kts | 28° |
| 2026-04-22 01:14 | 5.58657 | -75.52224 | 17804 ft | 349 kts | 28° |
| 2026-04-22 01:14 | 5.60802 | -75.51086 | 17437 ft | 348 kts | 28° |
| 2026-04-22 01:15 | 5.62934 | -75.49957 | 17086 ft | 345 kts | 28° |
| 2026-04-22 01:15 | 5.65054 | -75.48835 | 16745 ft | 344 kts | 28° |
| 2026-04-22 01:15 | 5.67150 | -75.47725 | 16570 ft | 336 kts | 28° |
| 2026-04-22 01:15 | 5.69186 | -75.46647 | 16493 ft | 326 kts | 28° |
| 2026-04-22 01:16 | 5.71159 | -75.45603 | 16401 ft | 316 kts | 27° |
| 2026-04-22 01:16 | 5.73087 | -75.44585 | 16239 ft | 310 kts | 27° |
| 2026-04-22 01:16 | 5.74967 | -75.43590 | 16179 ft | 301 kts | 27° |
| 2026-04-22 01:16 | 5.76793 | -75.42633 | 16075 ft | 292 kts | 24° |
| 2026-04-22 01:17 | 5.78722 | -75.42166 | 15939 ft | 283 kts | 1° |
| 2026-04-22 01:17 | 5.80670 | -75.42198 | 15745 ft | 278 kts | 356° |
| 2026-04-22 01:17 | 5.82603 | -75.42279 | 15480 ft | 278 kts | 358° |
| 2026-04-22 01:17 | 5.84528 | -75.42315 | 15246 ft | 276 kts | 359° |
| 2026-04-22 01:18 | 5.86443 | -75.42323 | 15001 ft | 275 kts | 359° |
| 2026-04-22 01:18 | 5.88353 | -75.42323 | 14750 ft | 274 kts | 359° |
| 2026-04-22 01:18 | 5.90253 | -75.42322 | 14561 ft | 270 kts | 359° |
| 2026-04-22 01:18 | 5.92082 | -75.42321 | 14559 ft | 255 kts | 360° |
| 2026-04-22 01:19 | 5.93819 | -75.42313 | 14397 ft | 246 kts | 0° |
| 2026-04-22 01:19 | 5.95486 | -75.42258 | 14241 ft | 235 kts | 1° |
| 2026-04-22 01:19 | 5.97102 | -75.42239 | 13950 ft | 230 kts | 359° |
| 2026-04-22 01:19 | 5.98699 | -75.42284 | 13579 ft | 229 kts | 358° |
| 2026-04-22 01:20 | 6.00293 | -75.42314 | 13076 ft | 232 kts | 359° |
| 2026-04-22 01:20 | 6.01907 | -75.42272 | 12647 ft | 231 kts | 1° |
| 2026-04-22 01:20 | 6.03530 | -75.42241 | 12108 ft | 237 kts | 1° |
| 2026-04-22 01:20 | 6.05201 | -75.42247 | 11535 ft | 242 kts | 357° |
| 2026-04-22 01:21 | 6.06888 | -75.42324 | 10848 ft | 247 kts | 359° |
| 2026-04-22 01:21 | 6.08642 | -75.42321 | 9727 ft | 257 kts | 0° |
| 2026-04-22 01:21 | 6.10492 | -75.42278 | 8583 ft | 266 kts | 1° |
| 2026-04-22 01:21 | 6.12288 | -75.42294 | 7800 ft | 247 kts | 359° |
| 2026-04-22 01:22 | 6.13921 | -75.42307 | 7176 ft | 218 kts | 1° |
| 2026-04-22 01:22 | 6.15323 | -75.42307 | 6998 ft | 186 kts | 0° |
| 2026-04-22 01:22 | 6.16504 | -75.42312 | 6994 ft | 151 kts | 359° |
| 2026-04-22 01:22 | 6.17375 | -75.42323 | 7021 ft | 75 kts | 359° |
| 2026-04-22 01:23 | 6.17545 | -75.42329 | 7023 ft | 3 kts | 342° |
| 2026-04-22 01:23 | 6.17561 | -75.42341 | 7024 ft | 3 kts | 310° |
| 2026-04-22 01:23 | 6.17569 | -75.42380 | 7019 ft | 10 kts | 275° |
| 2026-04-22 01:23 | 6.17569 | -75.42457 | 7018 ft | 11 kts | 258° |
| 2026-04-22 01:24 | 6.17522 | -75.42522 | 7020 ft | 12 kts | 220° |
| 2026-04-22 01:24 | 6.17451 | -75.42573 | 7017 ft | 13 kts | 210° |
| 2026-04-22 01:24 | 6.17374 | -75.42621 | 7017 ft | 13 kts | 211° |
| 2026-04-22 01:24 | 6.17305 | -75.42673 | 7015 ft | 12 kts | 228° |
| 2026-04-22 01:25 | 6.17267 | -75.42719 | 7015 ft | 0 kts | 230° |